createdAt,value
2018-08-13T00:00:21.958Z,25.10
2018-08-13T00:02:48.829Z,25.10
2018-08-13T00:05:15.777Z,25.10
2018-08-13T00:07:42.674Z,25.10
2018-08-13T00:10:09.514Z,25.10
2018-08-13T00:12:37.370Z,25.10
2018-08-13T00:15:04.162Z,25.00
2018-08-13T00:17:31.209Z,25.00
2018-08-13T00:19:58.099Z,25.00
2018-08-13T00:22:24.942Z,25.00
2018-08-13T00:24:52.058Z,25.10
2018-08-13T00:27:18.901Z,25.10
2018-08-13T00:29:45.743Z,25.10
2018-08-13T00:32:12.757Z,25.10
2018-08-13T00:34:39.590Z,25.00
2018-08-13T00:37:06.387Z,25.00
2018-08-13T00:39:33.211Z,25.00
2018-08-13T00:42:00.027Z,25.00
2018-08-13T00:44:26.854Z,25.00
2018-08-13T00:46:53.683Z,25.00
2018-08-13T00:49:20.503Z,25.00
2018-08-13T00:51:47.352Z,25.00
2018-08-13T00:54:14.184Z,25.00
2018-08-13T00:56:41.123Z,25.00
2018-08-13T00:59:07.962Z,25.00
2018-08-13T01:01:34.791Z,25.00
2018-08-13T01:04:01.622Z,25.00
2018-08-13T01:06:28.485Z,25.00
2018-08-13T01:08:55.315Z,25.00
2018-08-13T01:11:22.137Z,25.00
2018-08-13T01:13:48.974Z,25.00
2018-08-13T01:16:15.854Z,25.00
2018-08-13T01:18:42.662Z,25.00
2018-08-13T01:21:09.496Z,25.00
2018-08-13T01:23:36.329Z,25.00
2018-08-13T01:26:03.229Z,25.00
2018-08-13T01:28:30.058Z,25.00
2018-08-13T01:30:56.902Z,25.00
2018-08-13T01:33:23.717Z,25.00
2018-08-13T01:35:50.622Z,25.00
2018-08-13T01:38:17.460Z,25.00
2018-08-13T01:40:44.327Z,25.00
2018-08-13T01:43:11.153Z,25.00
2018-08-13T01:45:38.178Z,25.00
2018-08-13T01:48:05.009Z,25.00
2018-08-13T01:50:31.823Z,25.00
2018-08-13T01:52:58.808Z,25.00
2018-08-13T01:55:25.766Z,25.00
2018-08-13T01:57:52.606Z,25.00
2018-08-13T02:00:19.445Z,25.00
2018-08-13T02:02:46.273Z,24.90
2018-08-13T02:05:13.207Z,24.90
2018-08-13T02:07:40.029Z,24.90
2018-08-13T02:10:06.866Z,24.90
2018-08-13T02:12:33.711Z,24.90
2018-08-13T02:15:00.701Z,24.90
2018-08-13T02:17:27.536Z,24.90
2018-08-13T02:19:54.362Z,24.90
2018-08-13T02:22:21.199Z,24.90
2018-08-13T02:24:48.075Z,24.90
2018-08-13T02:27:14.908Z,24.90
2018-08-13T02:29:41.759Z,24.90
2018-08-13T02:32:09.047Z,24.90
2018-08-13T02:34:35.862Z,24.90
2018-08-13T02:37:02.685Z,24.90
2018-08-13T02:39:29.521Z,24.90
2018-08-13T02:41:56.384Z,24.90
2018-08-13T02:44:23.200Z,24.90
2018-08-13T02:46:50.038Z,24.90
2018-08-13T02:49:16.859Z,24.90
2018-08-13T02:51:43.687Z,24.90
2018-08-13T02:54:10.514Z,24.90
2018-08-13T02:56:37.448Z,24.90
2018-08-13T02:59:04.275Z,24.90
2018-08-13T03:01:31.109Z,24.90
2018-08-13T03:03:57.944Z,24.90
2018-08-13T03:06:24.820Z,24.90
2018-08-13T03:08:51.649Z,24.90
2018-08-13T03:11:18.480Z,24.90
2018-08-13T03:13:45.314Z,24.90
2018-08-13T03:16:12.185Z,24.90
2018-08-13T03:18:39.024Z,24.90
2018-08-13T03:21:05.855Z,24.90
2018-08-13T03:23:32.683Z,24.90
2018-08-13T03:25:59.596Z,24.90
2018-08-13T03:28:26.427Z,24.90
2018-08-13T03:30:53.270Z,24.90
2018-08-13T03:33:20.103Z,24.90
2018-08-13T03:35:46.942Z,24.90
2018-08-13T03:38:13.782Z,24.90
2018-08-13T03:40:40.623Z,24.90
2018-08-13T03:43:07.458Z,24.80
2018-08-13T03:45:34.307Z,24.80
2018-08-13T03:48:01.149Z,24.90
2018-08-13T03:50:27.962Z,24.90
2018-08-13T03:52:54.786Z,24.80
2018-08-13T03:55:21.675Z,24.80
2018-08-13T03:57:48.525Z,24.80
2018-08-13T04:00:15.343Z,24.80
2018-08-13T04:02:42.171Z,24.80
2018-08-13T04:05:09.053Z,24.80
2018-08-13T04:07:35.874Z,24.80
2018-08-13T04:10:02.703Z,24.80
2018-08-13T04:12:29.572Z,24.80
2018-08-13T04:14:56.407Z,24.80
2018-08-13T04:17:23.248Z,24.80
2018-08-13T04:19:50.082Z,24.80
2018-08-13T04:22:16.911Z,24.80
2018-08-13T04:24:43.795Z,24.80
2018-08-13T04:27:10.612Z,24.80
2018-08-13T04:29:37.452Z,24.80
2018-08-13T04:32:04.278Z,24.80
2018-08-13T04:34:31.161Z,24.70
2018-08-13T04:36:57.981Z,23.60
2018-08-13T04:39:24.807Z,22.80
2018-08-13T04:41:51.635Z,22.40
2018-08-13T04:44:18.458Z,22.10
2018-08-13T04:46:45.311Z,22.00
2018-08-13T04:49:12.224Z,21.90
2018-08-13T04:51:39.892Z,21.80
2018-08-13T04:54:06.713Z,21.70
2018-08-13T04:56:33.589Z,21.60
2018-08-13T04:59:00.539Z,21.50
2018-08-13T05:01:27.230Z,21.70
2018-08-13T05:03:54.090Z,22.00
2018-08-13T05:06:20.944Z,22.10
2018-08-13T05:08:47.769Z,22.10
2018-08-13T05:11:14.621Z,22.20
2018-08-13T05:13:41.453Z,22.20
2018-08-13T05:16:08.330Z,22.30
2018-08-13T05:18:35.169Z,22.30
2018-08-13T05:21:02.004Z,22.30
2018-08-13T05:23:28.824Z,22.40
2018-08-13T05:25:55.706Z,22.40
2018-08-13T05:28:22.572Z,22.40
2018-08-13T05:30:49.407Z,22.40
2018-08-13T05:33:16.259Z,22.50
2018-08-13T05:35:43.293Z,22.50
2018-08-13T05:38:10.100Z,22.50
2018-08-13T05:40:36.914Z,22.50
2018-08-13T05:43:03.753Z,22.30
2018-08-13T05:45:30.637Z,22.00
2018-08-13T05:47:57.458Z,22.00
2018-08-13T05:50:24.275Z,22.10
2018-08-13T05:52:51.110Z,22.30
2018-08-13T05:55:17.994Z,22.40
2018-08-13T05:57:44.865Z,22.30
2018-08-13T06:00:13.030Z,22.20
2018-08-13T06:02:39.975Z,22.20
2018-08-13T06:05:07.269Z,22.30
2018-08-13T06:07:34.062Z,22.30
2018-08-13T06:10:00.892Z,22.30
2018-08-13T06:12:27.724Z,22.40
2018-08-13T06:14:54.995Z,22.50
2018-08-13T06:17:21.830Z,22.60
2018-08-13T06:19:48.663Z,22.70
2018-08-13T06:22:15.521Z,22.90
2018-08-13T06:24:42.324Z,23.10
2018-08-13T06:27:09.271Z,23.30
2018-08-13T06:29:36.093Z,23.40
2018-08-13T06:32:02.913Z,23.50
2018-08-13T06:34:29.754Z,23.60
2018-08-13T06:36:56.562Z,23.70
2018-08-13T06:39:23.385Z,23.80
2018-08-13T06:41:50.262Z,23.90
2018-08-13T06:44:17.115Z,23.90
2018-08-13T06:46:43.947Z,23.90
2018-08-13T06:49:10.782Z,24.00
2018-08-13T06:51:37.627Z,24.10
2018-08-13T06:54:04.464Z,24.10
2018-08-13T06:56:31.325Z,24.10
2018-08-13T06:58:58.158Z,24.10
2018-08-13T07:01:24.990Z,24.20
2018-08-13T07:03:51.833Z,24.20
2018-08-13T07:06:18.691Z,24.20
2018-08-13T07:08:45.521Z,24.20
2018-08-13T07:11:12.372Z,24.20
2018-08-13T07:13:39.180Z,24.20
2018-08-13T07:16:06.063Z,24.20
2018-08-13T07:18:32.900Z,24.20
2018-08-13T07:20:59.740Z,24.20
2018-08-13T07:23:26.547Z,24.20
2018-08-13T07:25:53.436Z,24.20
2018-08-13T07:28:20.274Z,24.20
2018-08-13T07:30:47.109Z,24.20
2018-08-13T07:33:13.939Z,24.20
2018-08-13T07:35:40.812Z,24.30
2018-08-13T07:38:07.630Z,24.30
2018-08-13T07:40:34.453Z,24.30
2018-08-13T07:43:01.291Z,24.30
2018-08-13T07:45:28.229Z,24.30
2018-08-13T07:47:55.056Z,24.30
2018-08-13T07:50:21.869Z,24.30
2018-08-13T07:52:48.702Z,24.40
2018-08-13T07:55:15.694Z,24.30
2018-08-13T07:57:42.512Z,24.40
2018-08-13T08:00:09.357Z,24.40
2018-08-13T08:02:36.173Z,24.40
2018-08-13T08:05:03.144Z,24.40
2018-08-13T08:07:29.985Z,24.40
2018-08-13T08:09:56.840Z,24.40
2018-08-13T08:12:23.661Z,24.40
2018-08-13T08:14:50.724Z,24.40
2018-08-13T08:17:17.859Z,24.40
2018-08-13T08:19:44.661Z,24.30
2018-08-13T08:22:11.510Z,24.30
2018-08-13T08:24:38.341Z,24.40
2018-08-13T08:27:05.265Z,24.40
2018-08-13T08:29:32.073Z,24.30
2018-08-13T08:31:58.911Z,24.30
2018-08-13T08:34:25.821Z,24.20
2018-08-13T08:36:52.654Z,24.20
2018-08-13T08:39:19.508Z,24.20
2018-08-13T08:41:46.342Z,24.20
2018-08-13T08:44:13.166Z,24.20
2018-08-13T08:46:40.080Z,24.20
2018-08-13T08:49:06.902Z,24.20
2018-08-13T08:51:33.738Z,24.20
2018-08-13T08:54:00.585Z,24.20
2018-08-13T08:56:27.480Z,24.20
2018-08-13T08:58:54.287Z,24.20
2018-08-13T09:01:21.114Z,24.20
2018-08-13T09:03:47.973Z,24.30
2018-08-13T09:06:15.026Z,24.20
2018-08-13T09:08:41.846Z,24.20
2018-08-13T09:11:08.770Z,24.20
2018-08-13T09:13:35.623Z,24.20
2018-08-13T09:16:02.628Z,24.20
2018-08-13T09:18:29.442Z,24.20
2018-08-13T09:20:56.272Z,24.20
2018-08-13T09:23:23.093Z,24.20
2018-08-13T09:25:50.023Z,24.30
2018-08-13T09:28:16.854Z,24.30
2018-08-13T09:30:43.681Z,24.30
2018-08-13T09:33:10.489Z,24.30
2018-08-13T09:35:37.443Z,24.30
2018-08-13T09:38:04.794Z,24.30
2018-08-13T09:40:31.602Z,24.30
2018-08-13T09:42:58.592Z,24.30
2018-08-13T09:45:25.604Z,24.30
2018-08-13T09:47:52.649Z,24.30
2018-08-13T09:50:19.476Z,24.30
2018-08-13T09:52:46.528Z,24.30
2018-08-13T09:55:13.525Z,24.30
2018-08-13T09:57:40.346Z,24.30
2018-08-13T10:00:07.188Z,24.30
2018-08-13T10:02:34.014Z,24.30
2018-08-13T10:05:00.899Z,24.30
2018-08-13T10:07:27.808Z,24.30
2018-08-13T10:09:54.637Z,24.30
2018-08-13T10:12:21.469Z,24.30
2018-08-13T10:14:48.471Z,24.30
2018-08-13T10:17:15.649Z,24.30
2018-08-13T10:19:42.529Z,24.30
2018-08-13T10:22:09.363Z,24.30
2018-08-13T10:24:36.206Z,24.30
2018-08-13T10:27:03.048Z,24.40
2018-08-13T10:29:29.878Z,24.40
2018-08-13T10:31:56.878Z,24.50
2018-08-13T10:34:23.684Z,24.40
2018-08-13T10:36:50.519Z,24.40
2018-08-13T10:39:17.525Z,24.50
2018-08-13T10:41:44.563Z,24.50
2018-08-13T10:44:11.393Z,24.50
2018-08-13T10:46:38.250Z,24.50
2018-08-13T10:49:05.073Z,24.50
2018-08-13T10:51:31.890Z,24.50
2018-08-13T10:53:58.719Z,24.50
2018-08-13T10:56:25.616Z,24.50
2018-08-13T10:58:52.436Z,24.50
2018-08-13T11:01:19.305Z,24.50
2018-08-13T11:03:46.069Z,24.50
2018-08-13T11:06:13.001Z,24.50
2018-08-13T11:08:39.837Z,24.50
2018-08-13T11:11:07.238Z,24.40
2018-08-13T11:13:34.079Z,24.50
2018-08-13T11:16:00.976Z,24.40
2018-08-13T11:18:27.817Z,24.50
2018-08-13T11:20:54.679Z,24.50
2018-08-13T11:23:21.474Z,24.40
2018-08-13T11:25:48.347Z,24.40
2018-08-13T11:28:15.174Z,24.50
2018-08-13T11:30:42.024Z,24.50
2018-08-13T11:33:08.831Z,24.60
2018-08-13T11:35:35.725Z,24.70
2018-08-13T11:38:02.555Z,24.70
2018-08-13T11:40:29.410Z,24.70
2018-08-13T11:42:56.230Z,24.70
2018-08-13T11:45:23.106Z,24.70
2018-08-13T11:47:50.199Z,24.70
2018-08-13T11:50:17.034Z,24.70
2018-08-13T11:52:43.849Z,24.70
2018-08-13T11:55:10.865Z,24.70
2018-08-13T11:57:37.683Z,24.70
2018-08-13T12:00:04.515Z,24.70
2018-08-13T12:02:31.409Z,24.70
2018-08-13T12:04:58.443Z,24.80
2018-08-13T12:07:25.266Z,24.70
2018-08-13T12:09:52.089Z,24.70
2018-08-13T12:12:18.916Z,24.70
2018-08-13T12:14:45.743Z,24.70
2018-08-13T12:17:12.613Z,24.70
2018-08-13T12:19:39.475Z,24.70
2018-08-13T12:22:06.285Z,24.70
2018-08-13T12:24:33.086Z,24.80
2018-08-13T12:26:59.934Z,24.80
2018-08-13T12:29:26.856Z,24.80
2018-08-13T12:31:53.684Z,24.80
2018-08-13T12:34:20.525Z,24.80
2018-08-13T12:36:47.406Z,24.80
2018-08-13T12:39:14.238Z,24.80
2018-08-13T12:41:41.068Z,24.80
2018-08-13T12:44:07.904Z,24.80
2018-08-13T12:46:34.771Z,24.80
2018-08-13T12:49:01.690Z,24.80
2018-08-13T12:51:28.530Z,24.80
2018-08-13T12:53:55.378Z,24.80
2018-08-13T12:56:22.349Z,24.80
2018-08-13T12:58:49.206Z,24.80
2018-08-13T13:01:16.058Z,24.80
2018-08-13T13:03:43.041Z,24.80
2018-08-13T13:06:09.941Z,24.80
2018-08-13T13:08:36.762Z,24.80
2018-08-13T13:11:03.590Z,24.80
2018-08-13T13:13:30.478Z,24.80
2018-08-13T13:15:57.511Z,24.80
2018-08-13T13:18:24.357Z,24.80
2018-08-13T13:20:51.274Z,24.90
2018-08-13T13:23:18.073Z,24.80
2018-08-13T13:25:45.087Z,24.90
2018-08-13T13:28:12.042Z,24.90
2018-08-13T13:30:38.888Z,24.90
2018-08-13T13:33:05.793Z,24.90
2018-08-13T13:35:33.707Z,24.90
2018-08-13T13:38:00.575Z,24.90
2018-08-13T13:40:27.487Z,24.90
2018-08-13T13:42:54.228Z,24.80
2018-08-13T13:45:21.061Z,24.90
2018-08-13T13:47:47.905Z,24.90
2018-08-13T13:50:14.779Z,24.90
2018-08-13T13:52:41.620Z,24.90
2018-08-13T13:55:08.656Z,24.90
2018-08-13T13:57:35.486Z,24.90
2018-08-13T14:00:02.320Z,24.90
2018-08-13T14:02:29.145Z,25.00
2018-08-13T14:04:56.000Z,25.00
2018-08-13T14:07:22.828Z,25.00
2018-08-13T14:09:49.670Z,25.10
2018-08-13T14:12:16.509Z,25.10
2018-08-13T14:14:43.480Z,25.10
2018-08-13T14:17:10.368Z,25.10
2018-08-13T14:19:37.177Z,25.10
2018-08-13T14:22:04.022Z,25.10
2018-08-13T14:24:31.102Z,25.10
2018-08-13T14:26:57.919Z,25.10
2018-08-13T14:29:24.751Z,25.10
2018-08-13T14:31:52.949Z,25.10
2018-08-13T14:34:19.841Z,25.10
2018-08-13T14:36:46.803Z,25.10
2018-08-13T14:39:13.676Z,25.10
2018-08-13T14:41:40.561Z,25.10
2018-08-13T14:44:07.407Z,25.10
2018-08-13T14:46:34.384Z,25.10
2018-08-13T14:49:01.216Z,25.10
2018-08-13T14:51:28.088Z,25.10
2018-08-13T14:53:54.951Z,25.10
2018-08-13T14:56:21.951Z,25.10
2018-08-13T14:58:48.836Z,25.10
2018-08-13T15:01:15.700Z,25.10
2018-08-13T15:03:42.510Z,25.10
2018-08-13T15:06:09.540Z,25.10
2018-08-13T15:08:36.370Z,25.10
2018-08-13T15:11:03.235Z,25.10
2018-08-13T15:13:30.051Z,25.10
2018-08-13T15:15:56.908Z,25.10
2018-08-13T15:18:23.867Z,25.10
2018-08-13T15:20:50.696Z,25.10
2018-08-13T15:23:17.526Z,25.10
2018-08-13T15:25:44.500Z,25.10
2018-08-13T15:28:11.442Z,25.10
2018-08-13T15:30:38.181Z,25.10
2018-08-13T15:33:05.007Z,25.10
2018-08-13T15:35:31.871Z,25.10
2018-08-13T15:37:58.787Z,25.10
2018-08-13T15:40:25.625Z,25.10
2018-08-13T15:42:52.468Z,25.10
2018-08-13T15:45:19.429Z,25.10
2018-08-13T15:47:46.567Z,25.20
2018-08-13T15:50:13.409Z,25.10
2018-08-13T15:52:40.229Z,25.20
2018-08-13T15:55:07.310Z,25.20
2018-08-13T15:57:34.154Z,25.10
2018-08-13T16:00:01.036Z,25.10
2018-08-13T16:02:28.871Z,25.10
2018-08-13T16:04:55.823Z,25.10
2018-08-13T16:07:22.671Z,25.10
2018-08-13T16:09:49.516Z,25.20
2018-08-13T16:12:20.535Z,25.20
2018-08-13T16:14:47.439Z,25.20
2018-08-13T16:17:14.359Z,25.20
2018-08-13T16:19:41.170Z,25.20
2018-08-13T16:22:08.007Z,25.20
2018-08-13T16:24:34.841Z,25.20
2018-08-13T16:27:01.671Z,25.20
2018-08-13T16:29:28.494Z,25.20
2018-08-13T16:31:55.327Z,25.10
2018-08-13T16:34:22.163Z,25.20
2018-08-13T16:36:49.123Z,25.20
2018-08-13T16:39:16.331Z,25.20
2018-08-13T16:41:43.272Z,25.20
2018-08-13T16:44:10.092Z,25.20
2018-08-13T16:46:37.132Z,25.20
2018-08-13T16:49:04.318Z,25.20
2018-08-13T16:51:31.163Z,25.20
2018-08-13T16:53:57.986Z,25.20
2018-08-13T16:56:24.877Z,25.20
2018-08-13T16:58:51.869Z,25.20
2018-08-13T17:01:18.702Z,25.20
2018-08-13T17:03:45.564Z,25.20
2018-08-13T17:06:12.671Z,25.20
2018-08-13T17:08:39.622Z,25.30
2018-08-13T17:11:06.454Z,25.20
2018-08-13T17:13:33.492Z,25.30
2018-08-13T17:16:00.431Z,25.30
2018-08-13T17:18:27.258Z,25.20
2018-08-13T17:20:54.106Z,25.20
2018-08-13T17:23:21.092Z,25.30
2018-08-13T17:25:48.641Z,25.30
2018-08-13T17:28:16.371Z,25.30
2018-08-13T17:30:43.130Z,25.20
2018-08-13T17:33:10.047Z,25.30
2018-08-13T17:35:36.997Z,25.30
2018-08-13T17:38:03.857Z,25.30
2018-08-13T17:40:31.616Z,25.20
2018-08-13T17:42:58.666Z,25.30
2018-08-13T17:45:25.675Z,25.30
2018-08-13T17:47:52.823Z,25.30
2018-08-13T17:50:20.368Z,25.30
2018-08-13T17:52:47.187Z,25.30
2018-08-13T17:55:15.517Z,25.30
2018-08-13T17:57:42.429Z,25.30
2018-08-13T18:00:09.576Z,25.30
2018-08-13T18:02:36.509Z,25.30
2018-08-13T18:05:03.400Z,25.30
2018-08-13T18:07:30.226Z,25.20
2018-08-13T18:09:57.712Z,25.30
2018-08-13T18:12:24.542Z,25.30
2018-08-13T18:14:51.478Z,25.20
2018-08-13T18:17:19.278Z,25.20
2018-08-13T18:19:46.159Z,25.30
2018-08-13T18:22:13.149Z,25.30
2018-08-13T18:24:39.975Z,25.30
2018-08-13T18:27:06.799Z,25.20
2018-08-13T18:29:33.636Z,25.30
2018-08-13T18:32:00.485Z,25.30
2018-08-13T18:34:27.304Z,25.30
2018-08-13T18:36:54.138Z,25.30
2018-08-13T18:39:20.953Z,25.30
2018-08-13T18:41:47.807Z,25.30
2018-08-13T18:44:14.629Z,25.30
2018-08-13T18:46:41.587Z,25.30
2018-08-13T18:49:08.412Z,25.30
2018-08-13T18:51:35.261Z,25.30
2018-08-13T18:54:02.091Z,25.30
2018-08-13T18:56:28.950Z,25.30
2018-08-13T18:58:55.801Z,25.30
2018-08-13T19:01:22.638Z,25.30
2018-08-13T19:03:49.479Z,25.30
2018-08-13T19:06:16.306Z,25.30
2018-08-13T19:08:43.143Z,25.30
2018-08-13T19:11:09.968Z,25.30
2018-08-13T19:13:36.791Z,25.30
2018-08-13T19:16:03.707Z,25.30
2018-08-13T19:18:30.537Z,25.30
2018-08-13T19:20:57.363Z,25.30
2018-08-13T19:23:24.215Z,25.30
2018-08-13T19:25:51.147Z,25.30
2018-08-13T19:28:18.036Z,25.30
2018-08-13T19:30:44.864Z,25.30
2018-08-13T19:33:11.696Z,25.30
2018-08-13T19:35:38.662Z,25.30
2018-08-13T19:38:05.491Z,25.30
2018-08-13T19:40:32.339Z,25.30
2018-08-13T19:42:59.277Z,25.30
2018-08-13T19:45:26.212Z,25.30
2018-08-13T19:47:53.045Z,25.30
2018-08-13T19:50:19.863Z,25.30
2018-08-13T19:52:46.971Z,25.30
2018-08-13T19:55:14.030Z,25.30
2018-08-13T19:57:41.005Z,25.40
2018-08-13T20:00:07.851Z,25.30
2018-08-13T20:02:34.690Z,25.40
2018-08-13T20:05:01.585Z,25.40
2018-08-13T20:07:28.425Z,25.40
2018-08-13T20:09:55.317Z,25.40
2018-08-13T20:12:22.153Z,25.30
2018-08-13T20:14:49.159Z,25.30
2018-08-13T20:17:16.336Z,25.40
2018-08-13T20:19:43.237Z,25.30
2018-08-13T20:22:10.167Z,25.40
2018-08-13T20:24:36.990Z,25.40
2018-08-13T20:27:03.835Z,25.40
2018-08-13T20:29:30.859Z,25.40
2018-08-13T20:31:57.662Z,25.40
2018-08-13T20:34:24.509Z,25.50
2018-08-13T20:36:51.607Z,25.40
2018-08-13T20:39:18.401Z,25.40
2018-08-13T20:41:45.244Z,25.40
2018-08-13T20:44:12.065Z,25.40
2018-08-13T20:46:38.970Z,25.40
2018-08-13T20:49:05.826Z,25.30
2018-08-13T20:51:32.780Z,25.30
2018-08-13T20:53:59.647Z,25.40
2018-08-13T20:56:27.211Z,25.40
2018-08-13T20:58:55.099Z,25.30
2018-08-13T21:01:21.968Z,25.40
2018-08-13T21:03:48.852Z,25.30
2018-08-13T21:06:15.758Z,25.30
2018-08-13T21:08:42.636Z,25.30
2018-08-13T21:11:09.471Z,25.30
2018-08-13T21:13:36.448Z,25.30
2018-08-13T21:16:03.372Z,25.30
2018-08-13T21:18:30.185Z,25.30
2018-08-13T21:20:57.018Z,25.30
2018-08-13T21:23:23.884Z,25.30
2018-08-13T21:25:50.959Z,25.30
2018-08-13T21:28:17.795Z,25.30
2018-08-13T21:30:44.619Z,25.30
2018-08-13T21:33:11.446Z,25.30
2018-08-13T21:35:38.446Z,25.30
2018-08-13T21:38:05.273Z,25.30
2018-08-13T21:40:32.114Z,25.30
2018-08-13T21:42:59.079Z,25.30
2018-08-13T21:45:26.460Z,25.30
2018-08-13T21:47:53.255Z,25.30
2018-08-13T21:50:20.740Z,25.30
2018-08-13T21:52:47.573Z,25.30
2018-08-13T21:55:14.626Z,25.30
2018-08-13T21:57:42.744Z,25.30
2018-08-13T22:00:09.595Z,25.30
2018-08-13T22:02:36.670Z,25.30
2018-08-13T22:05:03.643Z,25.30
2018-08-13T22:07:30.475Z,25.30
2018-08-13T22:09:57.308Z,25.30
2018-08-13T22:12:24.147Z,25.30
2018-08-13T22:14:51.006Z,25.20
2018-08-13T22:17:17.848Z,25.30
2018-08-13T22:19:45.569Z,25.30
2018-08-13T22:22:12.368Z,25.30
2018-08-13T22:24:39.213Z,25.30
2018-08-13T22:27:06.089Z,25.20
2018-08-13T22:29:32.884Z,25.20
2018-08-13T22:31:59.705Z,25.20
2018-08-13T22:34:26.579Z,25.20
2018-08-13T22:36:53.469Z,25.20
2018-08-13T22:39:21.145Z,25.20
2018-08-13T22:41:47.963Z,25.20
2018-08-13T22:44:14.802Z,25.20
2018-08-13T22:46:41.803Z,25.20
2018-08-13T22:49:08.823Z,25.20
2018-08-13T22:51:35.641Z,25.20
2018-08-13T22:54:02.490Z,25.20
2018-08-13T22:56:29.418Z,25.20
2018-08-13T22:58:56.286Z,25.10
2018-08-13T23:01:23.188Z,25.10
2018-08-13T23:03:50.093Z,25.10
2018-08-13T23:06:17.168Z,25.10
2018-08-13T23:08:44.008Z,25.10
2018-08-13T23:11:10.845Z,25.10
2018-08-13T23:13:37.671Z,25.10
2018-08-13T23:16:04.613Z,25.10
2018-08-13T23:18:31.433Z,25.10
2018-08-13T23:20:59.181Z,25.10
2018-08-13T23:23:26.012Z,25.10
2018-08-13T23:25:52.944Z,25.10
2018-08-13T23:28:19.805Z,25.10
2018-08-13T23:30:46.786Z,25.10
2018-08-13T23:33:13.607Z,25.10
2018-08-13T23:35:40.511Z,25.10
2018-08-13T23:38:07.689Z,25.10
2018-08-13T23:40:34.511Z,25.00
2018-08-13T23:43:01.335Z,25.10
2018-08-13T23:45:28.281Z,25.10
2018-08-13T23:47:55.093Z,25.00
2018-08-13T23:50:21.929Z,25.00
2018-08-13T23:52:48.765Z,25.00
2018-08-13T23:55:15.661Z,25.00
2018-08-13T23:57:42.484Z,25.00
